Terminal Aerodrome Forecast
Issued by NWS Hastings, NE

Home | Current Version | Previous Version | Text Only | Print | Product List | Glossary On
Versions: 1 2 3 4 5 6 7 8 9 10 11 12 13 14 15 16 17 18 19 20 21 22 23 24 25 26 27 28 29 30 31 32 33
000
FTUS43 KGID 281120
TAFGRI
TAF
KGRI 281120Z 2812/2912 15008KT P6SM BKN200
     FM281800 17013KT P6SM SCT040 BKN200
     FM290400 VRB06KT P6SM VCTS BKN050CB
     FM290900 31005KT P6SM SCT100=

USA.gov is the U.S. government's official web portal to all federal, state and local government web resources and services.